sensor_id;sensor_type;location;lat;lon;timestamp;P1;durP1;ratioP1;P2;durP2;ratioP2
35022;SDS011;21214;44.912;8.204;2022-12-18T04:05:48;129.75;;;66.90;;
35022;SDS011;21214;44.912;8.204;2022-12-18T04:08:18;128.68;;;67.30;;
35022;SDS011;21214;44.912;8.204;2022-12-18T04:10:57;125.90;;;64.50;;
35022;SDS011;21214;44.912;8.204;2022-12-18T04:13:29;132.85;;;66.22;;
35022;SDS011;21214;44.912;8.204;2022-12-18T04:16:00;131.82;;;66.35;;
35022;SDS011;21214;44.912;8.204;2022-12-18T04:18:26;126.80;;;67.78;;
35022;SDS011;21214;44.912;8.204;2022-12-18T04:20:53;140.45;;;73.15;;
35022;SDS011;21214;44.912;8.204;2022-12-18T04:23:18;134.45;;;71.20;;
35022;SDS011;21214;44.912;8.204;2022-12-18T04:25:45;132.20;;;69.30;;
35022;SDS011;21214;44.912;8.204;2022-12-18T04:28:17;135.25;;;71.25;;
35022;SDS011;21214;44.912;8.204;2022-12-18T04:30:42;132.45;;;68.35;;
35022;SDS011;21214;44.912;8.204;2022-12-18T04:33:11;123.03;;;67.13;;
35022;SDS011;21214;44.912;8.204;2022-12-18T04:35:41;135.75;;;67.88;;
35022;SDS011;21214;44.912;8.204;2022-12-18T04:38:07;128.32;;;66.47;;
35022;SDS011;21214;44.912;8.204;2022-12-18T04:40:36;125.57;;;63.10;;
35022;SDS011;21214;44.912;8.204;2022-12-18T04:43:08;128.13;;;61.23;;
35022;SDS011;21214;44.912;8.204;2022-12-18T09:40:14;99.13;;;55.40;;
35022;SDS011;21214;44.912;8.204;2022-12-18T12:48:56;89.18;;;57.45;;
35022;SDS011;21214;44.912;8.204;2022-12-18T12:51:45;90.88;;;57.30;;
35022;SDS011;21214;44.912;8.204;2022-12-18T12:54:17;87.53;;;55.95;;
35022;SDS011;21214;44.912;8.204;2022-12-18T12:56:54;94.57;;;56.23;;
35022;SDS011;21214;44.912;8.204;2022-12-18T13:05:26;87.38;;;55.70;;
35022;SDS011;21214;44.912;8.204;2022-12-18T13:08:04;86.85;;;55.10;;
35022;SDS011;21214;44.912;8.204;2022-12-18T13:10:40;86.60;;;55.00;;
35022;SDS011;21214;44.912;8.204;2022-12-18T13:50:50;73.20;;;49.60;;
35022;SDS011;21214;44.912;8.204;2022-12-18T16:54:45;90.20;;;59.05;;
35022;SDS011;21214;44.912;8.204;2022-12-18T16:57:13;88.50;;;56.65;;
35022;SDS011;21214;44.912;8.204;2022-12-18T16:59:41;94.67;;;58.67;;
35022;SDS011;21214;44.912;8.204;2022-12-18T17:02:12;88.40;;;55.70;;
35022;SDS011;21214;44.912;8.204;2022-12-18T17:04:42;84.88;;;54.47;;
35022;SDS011;21214;44.912;8.204;2022-12-18T17:07:08;84.00;;;55.55;;
35022;SDS011;21214;44.912;8.204;2022-12-18T17:09:34;89.57;;;56.55;;
35022;SDS011;21214;44.912;8.204;2022-12-18T17:12:01;89.07;;;57.30;;
35022;SDS011;21214;44.912;8.204;2022-12-18T17:14:26;93.15;;;58.40;;
35022;SDS011;21214;44.912;8.204;2022-12-18T17:16:52;87.50;;;55.72;;
35022;SDS011;21214;44.912;8.204;2022-12-18T17:19:18;85.57;;;53.88;;
35022;SDS011;21214;44.912;8.204;2022-12-18T17:21:46;89.57;;;55.70;;
35022;SDS011;21214;44.912;8.204;2022-12-18T18:18:21;99.65;;;63.30;;
35022;SDS011;21214;44.912;8.204;2022-12-18T18:20:47;96.22;;;63.50;;
35022;SDS011;21214;44.912;8.204;2022-12-18T18:23:13;95.80;;;62.63;;
35022;SDS011;21214;44.912;8.204;2022-12-18T18:25:38;94.47;;;62.03;;
35022;SDS011;21214;44.912;8.204;2022-12-18T18:28:04;93.53;;;60.58;;
35022;SDS011;21214;44.912;8.204;2022-12-18T18:30:29;98.78;;;64.07;;
35022;SDS011;21214;44.912;8.204;2022-12-18T18:32:55;100.28;;;65.70;;
35022;SDS011;21214;44.912;8.204;2022-12-18T18:35:21;95.68;;;63.53;;
35022;SDS011;21214;44.912;8.204;2022-12-18T18:37:49;100.53;;;65.60;;
35022;SDS011;21214;44.912;8.204;2022-12-18T18:40:17;99.28;;;64.75;;
35022;SDS011;21214;44.912;8.204;2022-12-18T18:42:45;93.75;;;62.65;;
35022;SDS011;21214;44.912;8.204;2022-12-18T18:45:11;95.93;;;62.30;;
35022;SDS011;21214;44.912;8.204;2022-12-18T18:47:39;92.63;;;60.17;;
35022;SDS011;21214;44.912;8.204;2022-12-18T18:50:05;90.68;;;60.70;;
35022;SDS011;21214;44.912;8.204;2022-12-18T18:52:31;85.72;;;57.42;;
35022;SDS011;21214;44.912;8.204;2022-12-18T18:54:57;82.50;;;56.80;;
35022;SDS011;21214;44.912;8.204;2022-12-18T18:57:23;81.43;;;55.90;;
35022;SDS011;21214;44.912;8.204;2022-12-18T20:06:07;76.60;;;53.53;;
35022;SDS011;21214;44.912;8.204;2022-12-18T20:08:44;75.45;;;51.60;;
